createdAt,value
2022-11-08T00:01:42.087Z,10.27
2022-11-08T00:04:13.940Z,10.26
2022-11-08T00:07:02.435Z,10.24
2022-11-08T00:09:49.236Z,10.17
2022-11-08T00:12:36.519Z,10.16
2022-11-08T00:15:06.871Z,10.11
2022-11-08T00:17:36.041Z,10.10
2022-11-08T00:20:05.671Z,10.09
2022-11-08T00:22:36.299Z,10.09
2022-11-08T00:25:06.158Z,10.07
2022-11-08T00:27:35.571Z,10.07
2022-11-08T00:30:05.080Z,10.06
2022-11-08T00:32:34.280Z,10.05
2022-11-08T00:35:03.646Z,10.04
2022-11-08T00:37:32.808Z,10.02
2022-11-08T00:40:03.228Z,10.05
2022-11-08T00:42:32.499Z,10.05
2022-11-08T00:45:01.497Z,10.08
2022-11-08T00:47:30.789Z,10.07
2022-11-08T00:50:00.182Z,10.07
2022-11-08T00:52:29.337Z,10.06
2022-11-08T00:54:58.516Z,10.04
2022-11-08T00:57:47.327Z,10.03
2022-11-08T01:00:18.849Z,9.94
2022-11-08T01:02:47.600Z,9.86
2022-11-08T01:05:16.537Z,9.79
2022-11-08T01:07:45.180Z,9.69
2022-11-08T01:10:13.929Z,9.61
2022-11-08T01:12:44.287Z,9.53
2022-11-08T01:15:13.206Z,9.49
2022-11-08T01:17:42.010Z,9.45
2022-11-08T01:20:11.321Z,9.40
2022-11-08T01:22:40.153Z,9.37
2022-11-08T01:25:09.335Z,9.34
2022-11-08T01:27:37.988Z,9.30
2022-11-08T01:30:09.909Z,9.32
2022-11-08T01:32:38.711Z,9.27
2022-11-08T01:35:08.481Z,9.23
2022-11-08T01:37:37.485Z,9.18
2022-11-08T01:40:07.274Z,9.17
2022-11-08T01:42:36.066Z,9.17
2022-11-08T01:45:09.824Z,9.13
2022-11-08T01:47:38.676Z,9.12
2022-11-08T01:50:12.138Z,9.07
2022-11-08T01:52:46.746Z,9.08
2022-11-08T01:55:20.613Z,9.13
2022-11-08T01:57:54.400Z,9.13
2022-11-08T02:00:25.156Z,9.09
2022-11-08T02:02:58.567Z,9.07
2022-11-08T02:05:29.616Z,9.12
2022-11-08T02:08:03.525Z,9.13
2022-11-08T02:10:36.817Z,9.08
2022-11-08T02:13:11.969Z,9.03
2022-11-08T02:15:45.074Z,9.06
2022-11-08T02:18:16.274Z,9.02
2022-11-08T02:20:56.225Z,8.96
2022-11-08T02:23:28.974Z,8.95
2022-11-08T02:25:59.230Z,8.96
2022-11-08T02:28:28.003Z,8.92
2022-11-08T02:30:56.727Z,8.88
2022-11-08T02:33:25.555Z,8.84
2022-11-08T02:35:56.944Z,8.85
2022-11-08T02:38:27.570Z,8.83
2022-11-08T02:40:59.030Z,8.80
2022-11-08T02:43:27.932Z,8.80
2022-11-08T02:45:58.409Z,8.79
2022-11-08T02:48:27.787Z,8.74
2022-11-08T02:50:56.686Z,8.68
2022-11-08T02:53:25.460Z,8.66
2022-11-08T02:55:54.453Z,8.62
2022-11-08T02:58:24.837Z,8.59
2022-11-08T03:00:53.560Z,8.56
2022-11-08T03:03:22.406Z,8.52
2022-11-08T03:05:51.149Z,8.54
2022-11-08T03:08:20.334Z,8.56
2022-11-08T03:10:49.466Z,8.50
2022-11-08T03:13:18.191Z,8.51
2022-11-08T03:15:48.344Z,8.54
2022-11-08T03:18:17.402Z,8.49
2022-11-08T03:20:46.276Z,8.43
2022-11-08T03:23:15.030Z,8.43
2022-11-08T03:25:43.763Z,8.37
2022-11-08T03:28:12.624Z,8.35
2022-11-08T03:30:41.439Z,8.35
2022-11-08T03:33:12.024Z,8.32
2022-11-08T03:35:41.036Z,8.31
2022-11-08T03:38:09.794Z,8.29
2022-11-08T03:40:38.494Z,8.27
2022-11-08T03:43:07.205Z,8.26
2022-11-08T03:45:36.057Z,8.24
2022-11-08T03:48:05.079Z,8.24
2022-11-08T03:50:35.339Z,8.31
2022-11-08T03:53:04.150Z,8.31
2022-11-08T03:55:33.037Z,8.28
2022-11-08T03:58:01.969Z,8.28
2022-11-08T04:00:31.400Z,8.34
2022-11-08T04:03:05.081Z,8.36
2022-11-08T04:05:35.299Z,8.32
2022-11-08T04:08:05.575Z,8.29
2022-11-08T04:10:34.342Z,8.26
2022-11-08T04:13:20.807Z,8.20
2022-11-08T04:15:54.454Z,8.18
2022-11-08T04:18:40.487Z,8.13
2022-11-08T04:21:21.929Z,8.16
2022-11-08T04:23:52.513Z,8.16
2022-11-08T04:26:22.953Z,8.18
2022-11-08T04:28:51.699Z,8.13
2022-11-08T04:31:21.526Z,8.13
2022-11-08T04:33:50.193Z,8.16
2022-11-08T04:36:22.952Z,8.16
2022-11-08T04:38:54.652Z,8.15
2022-11-08T04:41:25.222Z,8.11
2022-11-08T04:43:55.533Z,8.07
2022-11-08T04:46:27.013Z,7.97
2022-11-08T04:48:58.311Z,8.07
2022-11-08T04:51:30.332Z,8.08
2022-11-08T04:54:00.231Z,8.08
2022-11-08T04:56:33.272Z,7.90
2022-11-08T04:59:02.666Z,8.09
2022-11-08T05:01:32.661Z,8.08
2022-11-08T05:04:01.699Z,8.07
2022-11-08T05:06:34.262Z,8.09
2022-11-08T05:09:03.384Z,8.15
2022-11-08T05:11:32.283Z,8.12
2022-11-08T05:14:01.143Z,8.13
2022-11-08T05:16:32.149Z,8.15
2022-11-08T05:19:01.697Z,8.17
2022-11-08T05:21:49.284Z,8.16
2022-11-08T05:24:19.651Z,8.15
2022-11-08T05:26:50.345Z,8.16
2022-11-08T05:29:19.216Z,8.18
2022-11-08T05:31:47.812Z,8.14
2022-11-08T05:34:16.583Z,8.11
2022-11-08T05:36:46.562Z,7.73
2022-11-08T05:39:15.256Z,8.14
2022-11-08T05:41:43.984Z,8.15
2022-11-08T05:44:12.659Z,8.16
2022-11-08T05:46:41.290Z,8.14
2022-11-08T05:49:10.132Z,8.13
2022-11-08T05:51:39.096Z,8.13
2022-11-08T05:54:09.355Z,8.11
2022-11-08T05:56:38.430Z,8.13
2022-11-08T05:59:11.668Z,8.13
2022-11-08T06:01:40.779Z,8.12
2022-11-08T06:04:10.350Z,8.10
2022-11-08T06:06:39.990Z,8.11
2022-11-08T06:09:11.867Z,8.11
2022-11-08T06:11:41.908Z,8.07
2022-11-08T06:14:10.858Z,8.06
2022-11-08T06:16:40.425Z,8.01
2022-11-08T06:19:09.725Z,8.08
2022-11-08T06:21:39.684Z,8.14
2022-11-08T06:24:10.835Z,8.21
2022-11-08T06:26:40.607Z,8.25
2022-11-08T06:29:09.719Z,8.30
2022-11-08T06:31:42.859Z,8.37
2022-11-08T06:34:12.910Z,8.42
2022-11-08T06:36:41.979Z,8.47
2022-11-08T06:39:13.969Z,8.53
2022-11-08T06:41:44.416Z,8.58
2022-11-08T06:44:15.320Z,8.60
2022-11-08T06:46:44.416Z,8.62
2022-11-08T06:49:13.408Z,8.68
2022-11-08T06:51:43.293Z,8.71
2022-11-08T06:54:26.110Z,8.74
2022-11-08T06:57:00.607Z,8.82
2022-11-08T06:59:30.060Z,8.88
2022-11-08T07:01:58.691Z,8.94
2022-11-08T07:04:27.437Z,8.98
2022-11-08T07:06:57.872Z,9.01
2022-11-08T07:09:27.949Z,9.05
2022-11-08T07:11:58.066Z,9.09
2022-11-08T07:14:26.714Z,9.13
2022-11-08T07:16:55.325Z,9.18
2022-11-08T07:19:24.167Z,9.23
2022-11-08T07:21:52.766Z,9.28
2022-11-08T07:24:21.423Z,9.29
2022-11-08T07:26:51.886Z,9.30
2022-11-08T07:29:20.660Z,9.30
2022-11-08T07:31:49.272Z,9.27
2022-11-08T07:34:18.232Z,9.23
2022-11-08T07:36:46.809Z,9.22
2022-11-08T07:39:15.402Z,9.22
2022-11-08T07:41:43.972Z,9.24
2022-11-08T07:44:13.985Z,9.24
2022-11-08T07:46:42.607Z,9.24
2022-11-08T07:49:11.295Z,9.29
2022-11-08T07:51:39.933Z,9.30
2022-11-08T07:54:08.491Z,9.35
2022-11-08T07:56:37.303Z,9.36
2022-11-08T07:59:05.873Z,9.42
2022-11-08T08:01:35.866Z,9.49
2022-11-08T08:04:04.926Z,9.56
2022-11-08T08:06:33.640Z,9.64
2022-11-08T08:09:02.259Z,9.70
2022-11-08T08:11:33.624Z,9.80
2022-11-08T08:14:02.916Z,9.91
2022-11-08T08:16:31.569Z,9.99
2022-11-08T08:19:01.541Z,10.09
2022-11-08T08:21:30.184Z,10.18
2022-11-08T08:23:58.758Z,10.22
2022-11-08T08:26:27.463Z,10.29
2022-11-08T08:28:56.341Z,10.38
2022-11-08T08:31:25.011Z,10.46
2022-11-08T08:33:53.580Z,10.55
2022-11-08T08:36:23.554Z,10.64
2022-11-08T08:38:52.217Z,10.69
2022-11-08T08:41:20.919Z,10.77
2022-11-08T08:43:49.534Z,10.88
2022-11-08T08:46:18.230Z,10.96
2022-11-08T08:48:46.870Z,11.05
2022-11-08T08:51:15.418Z,11.12
2022-11-08T08:53:45.482Z,11.23
2022-11-08T08:56:14.004Z,11.29
2022-11-08T08:58:42.858Z,11.34
2022-11-08T09:04:01.434Z,11.48
2022-11-08T09:06:30.148Z,11.56
2022-11-08T09:09:00.173Z,11.64
2022-11-08T09:11:28.751Z,11.68
2022-11-08T09:13:57.399Z,11.77
2022-11-08T09:16:25.973Z,11.87
2022-11-08T09:18:54.588Z,11.97
2022-11-08T09:21:23.397Z,12.04
2022-11-08T09:23:52.094Z,12.09
2022-11-08T09:26:22.072Z,12.15
2022-11-08T09:28:50.755Z,12.23
2022-11-08T09:31:19.391Z,12.28
2022-11-08T09:33:52.475Z,12.34
2022-11-08T09:36:21.222Z,12.41
2022-11-08T09:38:49.772Z,12.49
2022-11-08T09:41:49.105Z,12.54
2022-11-08T09:44:40.566Z,12.63
2022-11-08T09:47:18.586Z,12.72
2022-11-08T09:50:01.633Z,12.80
2022-11-08T09:52:31.659Z,12.89
2022-11-08T09:55:16.507Z,12.98
2022-11-08T09:58:02.613Z,13.08
2022-11-08T10:00:31.727Z,13.14
2022-11-08T10:03:00.368Z,13.21
2022-11-08T10:05:34.976Z,13.28
2022-11-08T10:08:12.330Z,13.33
2022-11-08T10:11:10.778Z,13.36
2022-11-08T10:13:51.174Z,13.41
2022-11-08T10:16:34.707Z,13.41
2022-11-08T10:19:25.362Z,13.46
2022-11-08T10:22:03.630Z,13.51
2022-11-08T10:24:42.022Z,13.58
2022-11-08T10:27:17.136Z,13.60
2022-11-08T10:29:49.014Z,13.63
2022-11-08T10:32:21.833Z,13.65
2022-11-08T10:34:57.183Z,13.67
2022-11-08T10:37:26.419Z,13.70
2022-11-08T10:39:59.772Z,13.76
2022-11-08T10:42:40.259Z,13.82
2022-11-08T10:45:12.212Z,13.91
2022-11-08T10:47:41.955Z,14.01
2022-11-08T10:50:15.660Z,14.08
2022-11-08T10:52:48.401Z,14.13
2022-11-08T10:55:28.310Z,14.19
2022-11-08T10:57:57.029Z,14.23
2022-11-08T11:00:30.572Z,14.28
2022-11-08T11:03:04.731Z,14.37
2022-11-08T11:05:36.108Z,14.43
2022-11-08T11:08:14.695Z,14.50
2022-11-08T11:10:45.099Z,14.56
2022-11-08T11:13:16.472Z,14.62
2022-11-08T11:15:50.976Z,14.65
2022-11-08T11:18:30.305Z,14.66
2022-11-08T11:21:01.578Z,14.64
2022-11-08T11:23:46.180Z,14.65
2022-11-08T11:26:28.756Z,14.68
2022-11-08T11:29:15.390Z,14.76
2022-11-08T11:31:47.039Z,14.88
2022-11-08T11:34:37.089Z,15.05
2022-11-08T11:37:15.685Z,15.17
2022-11-08T11:39:52.689Z,15.26
2022-11-08T11:42:46.502Z,14.98
2022-11-08T11:45:22.711Z,15.36
2022-11-08T11:47:56.070Z,15.42
2022-11-08T11:50:36.007Z,15.49
2022-11-08T11:53:07.797Z,15.57
2022-11-08T11:55:56.585Z,15.59
2022-11-08T11:58:41.554Z,15.60
2022-11-08T12:01:19.187Z,15.61
2022-11-08T12:04:12.953Z,15.65
2022-11-08T12:06:48.953Z,15.70
2022-11-08T12:09:33.548Z,15.73
2022-11-08T12:12:16.707Z,15.80
2022-11-08T12:14:56.919Z,15.82
2022-11-08T12:17:55.768Z,15.89
2022-11-08T12:20:45.161Z,15.92
2022-11-08T12:23:49.348Z,15.90
2022-11-08T12:26:24.863Z,15.81
2022-11-08T12:29:13.512Z,15.68
2022-11-08T12:31:52.532Z,15.56
2022-11-08T12:34:24.616Z,15.43
2022-11-08T12:37:10.021Z,15.31
2022-11-08T12:39:47.047Z,15.23
2022-11-08T12:42:39.049Z,15.18
2022-11-08T12:45:30.228Z,15.09
2022-11-08T12:48:10.342Z,15.07
2022-11-08T12:50:49.468Z,15.07
2022-11-08T12:53:41.143Z,15.06
2022-11-08T12:56:18.139Z,15.03
2022-11-08T12:58:48.941Z,14.98
2022-11-08T13:01:19.804Z,14.93
2022-11-08T13:04:07.527Z,14.87
2022-11-08T13:06:44.587Z,14.84
2022-11-08T13:09:23.216Z,14.79
2022-11-08T13:12:01.413Z,14.75
2022-11-08T13:14:30.301Z,14.71
2022-11-08T13:17:24.881Z,14.70
2022-11-08T13:20:05.393Z,14.70
2022-11-08T13:23:01.981Z,14.62
2022-11-08T13:25:40.484Z,14.59
2022-11-08T13:28:38.202Z,14.55
2022-11-08T13:31:19.146Z,14.54
2022-11-08T13:34:11.709Z,14.53
2022-11-08T13:36:51.755Z,14.52
2022-11-08T13:39:41.613Z,14.50
2022-11-08T13:42:30.696Z,14.50
2022-11-08T13:45:14.310Z,14.48
2022-11-08T13:48:01.001Z,14.47
2022-11-08T13:50:49.805Z,14.45
2022-11-08T13:53:46.529Z,14.41
2022-11-08T13:56:40.763Z,14.38
2022-11-08T13:59:59.029Z,14.30
2022-11-08T14:02:41.242Z,14.28
2022-11-08T14:05:27.623Z,14.24
2022-11-08T14:08:22.069Z,14.20
2022-11-08T14:11:35.231Z,14.12
2022-11-08T14:14:44.275Z,13.98
2022-11-08T14:17:46.943Z,13.81
2022-11-08T14:20:30.053Z,13.69
2022-11-08T14:23:00.098Z,13.58
2022-11-08T14:25:31.838Z,13.51
2022-11-08T14:28:00.745Z,13.45
2022-11-08T14:30:29.840Z,13.40
2022-11-08T14:33:17.506Z,13.34
2022-11-08T14:35:55.041Z,13.32
2022-11-08T14:38:24.146Z,13.30
2022-11-08T14:40:55.040Z,13.28
2022-11-08T14:43:24.504Z,12.97
2022-11-08T14:45:53.623Z,13.29
2022-11-08T14:48:29.202Z,13.26
2022-11-08T14:51:01.908Z,13.21
2022-11-08T14:53:32.422Z,13.20
2022-11-08T14:56:18.984Z,13.14
2022-11-08T14:58:49.693Z,13.07
2022-11-08T15:01:21.645Z,13.29
2022-11-08T15:03:55.502Z,13.45
2022-11-08T15:06:32.098Z,13.62
2022-11-08T15:09:01.569Z,13.47
2022-11-08T15:11:32.074Z,13.23
2022-11-08T15:14:04.130Z,13.03
2022-11-08T15:16:44.090Z,12.88
2022-11-08T15:19:31.137Z,12.71
2022-11-08T15:22:00.811Z,12.62
2022-11-08T15:24:38.234Z,12.55
2022-11-08T15:27:15.106Z,12.46
2022-11-08T15:29:52.395Z,12.37
2022-11-08T15:32:22.835Z,12.32
2022-11-08T15:34:57.249Z,12.30
2022-11-08T15:37:31.168Z,12.32
2022-11-08T15:40:03.477Z,12.32
2022-11-08T15:42:33.285Z,12.31
2022-11-08T15:45:05.400Z,12.33
2022-11-08T15:47:39.275Z,12.34
2022-11-08T15:50:17.859Z,12.36
2022-11-08T15:52:48.377Z,12.35
2022-11-08T15:55:18.659Z,12.34
2022-11-08T15:57:49.137Z,12.32
2022-11-08T16:00:22.345Z,12.30
2022-11-08T16:02:51.525Z,12.30
2022-11-08T16:05:23.814Z,12.27
2022-11-08T16:07:53.151Z,12.25
2022-11-08T16:10:26.377Z,12.25
2022-11-08T16:12:55.210Z,12.23
2022-11-08T16:15:25.607Z,12.07
2022-11-08T16:17:54.334Z,12.22
2022-11-08T16:20:28.724Z,11.80
2022-11-08T16:22:58.316Z,12.16
2022-11-08T16:25:28.893Z,12.18
2022-11-08T16:28:03.640Z,12.15
2022-11-08T16:30:35.115Z,12.12
2022-11-08T16:33:17.482Z,11.82
2022-11-08T16:35:47.805Z,12.13
2022-11-08T16:38:17.125Z,12.10
2022-11-08T16:40:45.854Z,12.08
2022-11-08T16:43:14.506Z,12.03
2022-11-08T16:46:04.306Z,12.00
2022-11-08T16:48:32.143Z,11.97
2022-11-08T16:51:03.599Z,11.92
2022-11-08T16:53:32.930Z,11.85
2022-11-08T16:56:01.563Z,11.79
2022-11-08T16:58:30.215Z,11.71
2022-11-08T17:00:58.911Z,11.61
2022-11-08T17:03:29.663Z,11.56
2022-11-08T17:05:58.690Z,11.51
2022-11-08T17:08:28.663Z,11.44
2022-11-08T17:10:57.433Z,11.39
2022-11-08T17:13:26.153Z,11.33
2022-11-08T17:15:56.856Z,11.24
2022-11-08T17:18:25.475Z,11.16
2022-11-08T17:20:54.186Z,11.11
2022-11-08T17:23:23.755Z,11.10
2022-11-08T17:25:53.743Z,11.07
2022-11-08T17:28:22.332Z,11.02
2022-11-08T17:30:50.964Z,11.00
2022-11-08T17:33:19.936Z,11.02
2022-11-08T17:35:48.979Z,10.99
2022-11-08T17:38:17.610Z,10.95
2022-11-08T17:40:46.298Z,10.91
2022-11-08T17:43:16.618Z,10.83
2022-11-08T17:45:45.477Z,10.77
2022-11-08T17:48:14.124Z,10.75
2022-11-08T17:50:42.767Z,10.75
2022-11-08T17:53:11.477Z,10.78
2022-11-08T17:55:40.157Z,10.81
2022-11-08T17:58:08.782Z,10.83
2022-11-08T18:00:39.396Z,10.84
2022-11-08T18:03:15.166Z,10.82
2022-11-08T18:05:54.589Z,10.77
2022-11-08T18:08:26.825Z,10.76
2022-11-08T18:10:56.580Z,10.81
2022-11-08T18:13:26.344Z,10.85
2022-11-08T18:15:56.713Z,10.86
2022-11-08T18:18:25.352Z,10.85
2022-11-08T18:20:57.153Z,10.83
2022-11-08T18:23:25.786Z,10.81
2022-11-08T18:25:56.159Z,10.77
2022-11-08T18:28:25.388Z,10.79
2022-11-08T18:30:55.755Z,10.75
2022-11-08T18:33:24.586Z,10.74
2022-11-08T18:35:53.183Z,10.72
2022-11-08T18:38:21.881Z,10.74
2022-11-08T18:40:50.846Z,10.73
2022-11-08T18:43:19.723Z,10.75
2022-11-08T18:45:48.578Z,10.76
2022-11-08T18:48:19.163Z,10.78
2022-11-08T18:50:51.594Z,10.84
2022-11-08T18:53:20.628Z,10.90
2022-11-08T18:55:49.867Z,10.88
2022-11-08T18:58:19.656Z,10.86
2022-11-08T19:00:49.732Z,10.86
2022-11-08T19:03:20.423Z,10.90
2022-11-08T19:05:49.993Z,10.91
2022-11-08T19:08:20.914Z,10.96
2022-11-08T19:10:54.348Z,11.02
2022-11-08T19:13:25.006Z,11.08
2022-11-08T19:15:58.328Z,11.12
2022-11-08T19:18:29.886Z,11.17
2022-11-08T19:20:59.737Z,11.17
2022-11-08T19:23:28.363Z,11.18
2022-11-08T19:25:58.301Z,11.19
2022-11-08T19:28:32.520Z,11.19
2022-11-08T19:31:01.639Z,11.23
2022-11-08T19:33:33.082Z,11.22
2022-11-08T19:36:03.154Z,11.20
2022-11-08T19:38:33.348Z,11.15
2022-11-08T19:41:06.454Z,11.09
2022-11-08T19:43:36.212Z,11.07
2022-11-08T19:46:06.763Z,11.06
2022-11-08T19:48:39.492Z,11.04
2022-11-08T19:51:12.732Z,11.02
2022-11-08T19:53:42.185Z,11.03
2022-11-08T19:56:15.566Z,11.03
2022-11-08T19:58:44.468Z,11.07
2022-11-08T20:01:17.551Z,11.16
2022-11-08T20:03:48.270Z,11.23
2022-11-08T20:06:19.628Z,11.28
2022-11-08T20:08:49.833Z,11.33
2022-11-08T20:11:20.688Z,11.42
2022-11-08T20:13:50.025Z,11.49
2022-11-08T20:16:20.694Z,11.53
2022-11-08T20:18:51.087Z,11.55
2022-11-08T20:21:20.238Z,11.60
2022-11-08T20:23:49.245Z,11.43
2022-11-08T20:26:20.281Z,11.67
2022-11-08T20:28:56.414Z,11.69
2022-11-08T20:31:26.712Z,11.70
2022-11-08T20:33:56.969Z,11.71
2022-11-08T20:36:29.537Z,11.73
2022-11-08T20:39:05.319Z,11.74
2022-11-08T20:41:37.502Z,11.71
2022-11-08T20:44:07.719Z,11.73
2022-11-08T20:46:37.245Z,11.71
2022-11-08T20:49:07.755Z,11.73
2022-11-08T20:51:36.614Z,11.73
2022-11-08T20:54:05.595Z,11.77
2022-11-08T20:56:37.660Z,11.78
2022-11-08T20:59:06.491Z,11.78
2022-11-08T21:01:36.212Z,11.76
2022-11-08T21:04:06.508Z,11.73
2022-11-08T21:06:36.606Z,11.70
2022-11-08T21:09:34.411Z,11.72
2022-11-08T21:11:58.507Z,11.72
2022-11-08T21:14:27.294Z,11.73
2022-11-08T21:19:48.697Z,11.70
2022-11-08T21:22:23.837Z,11.71
2022-11-08T21:24:53.399Z,11.72
2022-11-08T21:27:27.032Z,11.70
2022-11-08T21:30:05.227Z,11.70
2022-11-08T21:32:43.233Z,11.75
2022-11-08T21:35:16.788Z,11.78
2022-11-08T21:37:49.461Z,11.76
2022-11-08T21:40:18.822Z,11.72
2022-11-08T21:42:48.852Z,11.65
2022-11-08T21:45:17.978Z,11.66
2022-11-08T21:47:53.144Z,11.63
2022-11-08T21:50:24.009Z,11.59
2022-11-08T21:52:53.999Z,11.55
2022-11-08T21:55:22.805Z,11.53
2022-11-08T21:57:51.476Z,11.48
2022-11-08T22:00:20.473Z,11.41
2022-11-08T22:02:49.544Z,11.35
2022-11-08T22:05:18.682Z,11.32
2022-11-08T22:07:48.772Z,11.31
2022-11-08T22:10:17.605Z,11.33
2022-11-08T22:12:46.293Z,11.38
2022-11-08T22:15:15.017Z,11.43
2022-11-08T22:18:07.537Z,11.51
2022-11-08T22:21:07.091Z,11.53
2022-11-08T22:23:37.804Z,11.54
2022-11-08T22:26:06.858Z,11.56
2022-11-08T22:28:35.486Z,11.60
2022-11-08T22:31:04.193Z,11.62
2022-11-08T22:33:32.873Z,11.64
2022-11-08T22:36:01.590Z,11.65
2022-11-08T22:38:30.252Z,11.63
2022-11-08T22:41:00.481Z,11.65
2022-11-08T22:43:29.234Z,11.63
2022-11-08T22:45:57.919Z,11.58
2022-11-08T22:48:27.257Z,11.52
2022-11-08T22:50:56.160Z,11.43
2022-11-08T22:53:25.081Z,11.38
2022-11-08T22:55:53.997Z,11.31
2022-11-08T22:58:24.370Z,11.27
2022-11-08T23:00:53.279Z,11.27
2022-11-08T23:03:22.053Z,11.27
2022-11-08T23:05:51.097Z,11.26
2022-11-08T23:08:20.306Z,11.28
2022-11-08T23:11:07.328Z,11.33
2022-11-08T23:13:55.137Z,11.37
2022-11-08T23:16:35.025Z,11.36
2022-11-08T23:19:23.509Z,11.38
2022-11-08T23:22:10.251Z,11.38
2022-11-08T23:24:39.068Z,11.37
2022-11-08T23:27:25.443Z,11.39
2022-11-08T23:30:13.101Z,11.37
2022-11-08T23:32:44.819Z,11.40
2022-11-08T23:35:14.191Z,11.41
2022-11-08T23:37:43.394Z,11.44
2022-11-08T23:40:31.908Z,11.46
2022-11-08T23:43:30.432Z,11.46
2022-11-08T23:46:06.559Z,11.46
2022-11-08T23:48:36.057Z,11.45
2022-11-08T23:51:04.928Z,11.41
2022-11-08T23:53:36.870Z,11.26
2022-11-08T23:56:06.372Z,11.30
2022-11-08T23:58:35.148Z,11.25
